Página principal
METAR-TAF:

METAR-TAF

Aeroportos :

Irkutsk, Rússia

latitude: 52-16N, longitude: 104-19E, altura: 513 m

Observação actual do tempo

O boletim foi feito há 39 minutos, às 11:30 UTC
Vento 6 kt de este
Temperatura -14°C
Humidade 72%
Pressão 1020 hPa
Visibilidade 10 km ou mais
sem nuvens abaixo de 1500 metros e sem cumulonimbus

METAR: UIII 121130Z 08003MPS CAVOK M14/M18 Q1020 R12/810550 NOSIG RMK QFE723/0964

Hora: 20:09 (12:09 UTC)

Previsão

O boletim foi feito há 1 hora e 9 minutos, às 11:00 UTC
Previsão válida de 12 às 12 UTC a 13 às 12 UTC
Vento 2 kt com direcção variável
Visibilidade 10 km ou mais
Tornando-se
de 12 às 15 UTC a 12 às 17 UTC
Visibilidade: 2900 m
Nuvens fragmentadasa uma altura de 1100 ft, Cumulonimbus.
aguaceiros fracos de neve, fumo
Temporariamente
de 12 às 16 UTC a 13 às 12 UTC
Visibilidade: 1000 m
aguaceiros de neve, fumo

TAF: UIII 121100Z 1212/1312 VRB01MPS 9999 NSC BECMG 1215/1217 2900 -SHSN FU BKN011CB TEMPO 1216/1312 1000 SHSN FU

Observações e previsões do tempo de mais de 4000 aeroportos (mensagens METAR e TAF).

As estações disponíveis são os pontos amarelos e vermelhos sobre o mapa.

Mova o rato sobre o mapa para ver o nome da estação.

Depois clique no ponto para visualizar as observações e previsões meteorológicas.

Para alterar o mapa : clique nos botões verdes com uma cruz preta para aumentar o zoom; no botão verde com uma pitada de zoom; ou nas setas verdes para mapas adjacentes.


METAR-TAF: